Time;durP1;ratioP1;P1;durP2;ratioP2;P2;SDS_P1;SDS_P2;PMS_P1;PMS_P2;Temp;Humidity;BMP_temperature;BMP_pressure;BME280_temperature;BME280_humidity;BME280_pressure;Samples;Min_cycle;Max_cycle;Signal;HPM_P1;HPM_P2
2023/02/21 02:15:16;;;;;;;23.88;10.60;;;;;;;;;;5088998;28;20046;-77
2023/02/21 02:17:52;;;;;;;15.48;8.63;;;;;;;;;;5071553;28;20056;-77
2023/02/21 02:20:39;;;;;;;22.17;10.60;;;;;;;;;;5088987;28;20032;-77
2023/02/21 02:23:14;;;;;;;20.85;9.95;;;;;;;;;;5083804;28;20864;-76
2023/02/21 02:25:50;;;;;;;21.05;10.18;;;;;;;;;;5088908;28;20346;-77
2023/02/21 02:28:32;;;;;;;23.65;10.77;;;;;;;;;;5075818;28;20028;-77
2023/02/21 02:31:16;;;;;;;23.05;11.15;;;;;;;;;;5088833;28;20043;-76
2023/02/21 02:34:01;;;;;;;21.95;10.13;;;;;;;;;;5087513;28;20784;-76
2023/02/21 02:36:29;;;;;;;20.98;10.98;;;;;;;;;;5072298;28;20123;-77
2023/02/21 02:38:59;;;;;;;17.52;10.43;;;;;;;;;;5088068;28;20739;-76
2023/02/21 02:41:43;;;;;;;18.05;10.45;;;;;;;;;;5085888;28;20051;-77
2023/02/21 02:44:20;;;;;;;29.08;15.30;;;;;;;;;;5077644;28;20048;-76
2023/02/21 02:46:47;;;;;;;24.98;12.25;;;;;;;;;;5089265;28;20047;-77
2023/02/21 02:49:21;;;;;;;22.95;12.85;;;;;;;;;;5087270;28;20020;-77
2023/02/21 02:51:47;;;;;;;27.73;17.08;;;;;;;;;;5089231;28;20058;-77
2023/02/21 02:54:13;;;;;;;25.80;15.57;;;;;;;;;;5075287;28;20678;-76
2023/02/21 02:56:39;;;;;;;23.67;14.05;;;;;;;;;;5082790;28;20044;-77
2023/02/21 02:59:07;;;;;;;22.70;12.48;;;;;;;;;;5088054;28;20028;-76
2023/02/21 03:01:45;;;;;;;22.23;11.80;;;;;;;;;;5089335;28;20473;-77
2023/02/21 03:04:29;;;;;;;24.98;11.45;;;;;;;;;;5080354;28;20583;-76
2023/02/21 03:07:01;;;;;;;21.05;11.00;;;;;;;;;;5086358;28;20051;-76
2023/02/21 03:09:33;;;;;;;22.17;11.70;;;;;;;;;;5082922;28;20381;-76
2023/02/21 03:12:02;;;;;;;18.20;10.30;;;;;;;;;;5074786;28;20043;-76
2023/02/21 03:14:34;;;;;;;32.22;17.13;;;;;;;;;;5090548;28;20035;-77
2023/02/21 03:17:02;;;;;;;48.30;22.70;;;;;;;;;;5082465;28;20036;-77
2023/02/21 03:19:30;;;;;;;33.97;15.13;;;;;;;;;;5090814;28;20099;-76
2023/02/21 03:21:59;;;;;;;31.15;16.20;;;;;;;;;;5085882;28;20040;-76
2023/02/21 03:24:26;;;;;;;29.30;14.93;;;;;;;;;;5072089;28;20592;-77
2023/02/21 03:26:56;;;;;;;23.15;12.32;;;;;;;;;;5085989;28;20027;-77
2023/02/21 03:29:22;;;;;;;19.45;10.63;;;;;;;;;;5081270;28;20023;-77
2023/02/21 03:31:51;;;;;;;17.67;8.85;;;;;;;;;;5086865;28;20128;-77
2023/02/21 03:34:17;;;;;;;18.90;9.40;;;;;;;;;;5091699;28;20054;-77
2023/02/21 03:36:45;;;;;;;20.25;9.40;;;;;;;;;;5083964;28;20095;-77
2023/02/21 03:39:11;;;;;;;15.30;8.10;;;;;;;;;;5091610;28;20027;-77
2023/02/21 03:41:37;;;;;;;19.63;9.05;;;;;;;;;;5070785;28;20043;-76
2023/02/21 03:44:03;;;;;;;23.98;10.68;;;;;;;;;;5073063;28;20465;-77
2023/02/21 03:46:29;;;;;;;20.48;10.15;;;;;;;;;;5088374;28;20073;-77
2023/02/21 03:48:55;;;;;;;21.75;9.70;;;;;;;;;;5076182;28;20516;-76
2023/02/21 03:51:21;;;;;;;19.95;9.88;;;;;;;;;;5091076;28;20032;-76
2023/02/21 03:53:47;;;;;;;21.52;9.93;;;;;;;;;;5078883;28;20039;-76
2023/02/21 03:56:13;;;;;;;16.10;8.13;;;;;;;;;;5091238;28;20032;-77
2023/02/21 03:58:39;;;;;;;19.30;8.60;;;;;;;;;;5089469;28;20028;-76
2023/02/21 04:01:05;;;;;;;19.10;8.93;;;;;;;;;;5088871;28;20028;-77
2023/02/21 04:03:31;;;;;;;21.20;9.50;;;;;;;;;;5093402;28;20122;-76
2023/02/21 04:05:57;;;;;;;16.08;8.38;;;;;;;;;;5082498;28;20032;-76
2023/02/21 04:08:23;;;;;;;25.00;8.75;;;;;;;;;;5083502;28;20028;-77
2023/02/21 04:10:49;;;;;;;21.80;9.80;;;;;;;;;;5091179;28;20067;-76
2023/02/21 04:13:15;;;;;;;24.08;10.57;;;;;;;;;;5082371;28;20358;-77
2023/02/21 04:15:41;;;;;;;26.92;12.30;;;;;;;;;;5078535;28;20040;-77
2023/02/21 04:18:07;;;;;;;23.00;10.88;;;;;;;;;;5086573;28;20031;-77
2023/02/21 04:20:33;;;;;;;22.17;10.38;;;;;;;;;;5091040;28;20023;-76
2023/02/21 04:22:59;;;;;;;20.58;9.63;;;;;;;;;;5079097;28;20036;-77
2023/02/21 04:25:25;;;;;;;20.60;9.85;;;;;;;;;;5091132;28;20024;-77
2023/02/21 04:27:51;;;;;;;20.20;10.05;;;;;;;;;;5090717;28;20024;-76
2023/02/21 04:30:17;;;;;;;18.65;9.48;;;;;;;;;;5088049;28;20051;-77
2023/02/21 04:32:43;;;;;;;20.17;9.63;;;;;;;;;;5070624;28;20033;-76
2023/02/21 04:35:09;;;;;;;17.38;8.32;;;;;;;;;;5084361;28;20553;-77
2023/02/21 04:37:35;;;;;;;25.55;10.90;;;;;;;;;;5072756;28;20051;-77
2023/02/21 04:40:01;;;;;;;19.98;9.90;;;;;;;;;;5089059;28;20063;-77
2023/02/21 04:42:28;;;;;;;23.40;10.70;;;;;;;;;;5070699;28;20119;-76
2023/02/21 04:44:54;;;;;;;25.85;10.18;;;;;;;;;;5088323;28;20060;-76
2023/02/21 04:47:20;;;;;;;19.33;9.32;;;;;;;;;;5090430;28;20039;-76
2023/02/21 04:49:50;;;;;;;19.90;9.75;;;;;;;;;;5085711;28;20023;-77
2023/02/21 04:52:18;;;;;;;23.02;9.18;;;;;;;;;;5090093;28;20032;-76
2023/02/21 04:54:45;;;;;;;17.75;9.27;;;;;;;;;;5086761;28;20020;-76
2023/02/21 04:57:11;;;;;;;25.52;10.80;;;;;;;;;;5089825;28;20067;-76
2023/02/21 04:59:37;;;;;;;22.58;10.43;;;;;;;;;;5075379;28;20032;-76
2023/02/21 05:02:05;;;;;;;23.58;10.52;;;;;;;;;;5079370;28;20032;-76
2023/02/21 05:04:31;;;;;;;27.35;11.82;;;;;;;;;;5087270;28;20765;-76
2023/02/21 05:06:58;;;;;;;26.23;11.20;;;;;;;;;;5064584;28;20478;-76
2023/02/21 05:09:24;;;;;;;23.90;10.98;;;;;;;;;;5080812;28;20031;-76
2023/02/21 05:11:50;;;;;;;27.15;12.52;;;;;;;;;;5085821;28;20039;-76
2023/02/21 05:14:19;;;;;;;22.27;12.48;;;;;;;;;;5056115;28;20032;-76
2023/02/21 05:16:45;;;;;;;20.40;11.02;;;;;;;;;;5079855;28;20693;-76
2023/02/21 05:19:11;;;;;;;20.13;10.95;;;;;;;;;;5069759;28;20036;-77
2023/02/21 05:21:38;;;;;;;24.42;10.10;;;;;;;;;;5087904;28;20119;-76
2023/02/21 05:24:05;;;;;;;19.33;10.82;;;;;;;;;;5084048;28;20041;-76
2023/02/21 05:26:33;;;;;;;23.63;12.02;;;;;;;;;;5084581;28;20872;-76
2023/02/21 05:28:59;;;;;;;20.13;10.23;;;;;;;;;;5072671;28;20101;-76
2023/02/21 05:31:25;;;;;;;23.45;11.80;;;;;;;;;;5083211;28;20464;-76
2023/02/21 05:33:51;;;;;;;20.40;12.07;;;;;;;;;;5089578;28;20384;-76
2023/02/21 05:36:17;;;;;;;20.67;11.60;;;;;;;;;;5082323;28;20062;-76
2023/02/21 05:38:47;;;;;;;19.63;11.27;;;;;;;;;;5089555;28;20122;-76
2023/02/21 05:41:14;;;;;;;21.45;11.75;;;;;;;;;;5080506;28;20033;-76
2023/02/21 05:43:40;;;;;;;25.73;13.60;;;;;;;;;;5083348;28;20485;-76
2023/02/21 05:46:06;;;;;;;21.95;11.27;;;;;;;;;;5088899;28;20074;-76
2023/02/21 05:48:32;;;;;;;22.98;11.85;;;;;;;;;;5089129;28;20024;-77
2023/02/21 05:50:58;;;;;;;24.13;10.43;;;;;;;;;;5077601;28;20362;-76
2023/02/21 05:53:24;;;;;;;23.17;12.27;;;;;;;;;;5088355;28;20032;-76
2023/02/21 05:55:50;;;;;;;23.02;11.50;;;;;;;;;;5085398;28;20153;-77
2023/02/21 05:58:16;;;;;;;22.63;11.30;;;;;;;;;;5088958;28;20039;-77
2023/02/21 06:00:42;;;;;;;24.25;12.95;;;;;;;;;;5087419;28;20041;-76
2023/02/21 06:03:08;;;;;;;28.60;14.93;;;;;;;;;;5078976;28;20032;-76
2023/02/21 06:05:34;;;;;;;30.77;14.20;;;;;;;;;;5083781;28;20020;-76
2023/02/21 06:08:00;;;;;;;23.60;12.93;;;;;;;;;;5084077;28;20031;-76
2023/02/21 06:10:26;;;;;;;26.27;14.05;;;;;;;;;;5088277;28;20071;-76
2023/02/21 06:12:52;;;;;;;36.88;18.88;;;;;;;;;;5078133;28;20036;-76
2023/02/21 06:15:18;;;;;;;45.72;21.05;;;;;;;;;;5086784;28;20486;-76
2023/02/21 06:17:44;;;;;;;47.88;25.73;;;;;;;;;;5081288;28;20047;-76
2023/02/21 06:20:13;;;;;;;40.42;23.15;;;;;;;;;;5079907;28;20085;-76
2023/02/21 06:22:39;;;;;;;37.40;21.02;;;;;;;;;;5083848;28;20044;-76
2023/02/21 06:25:05;;;;;;;39.08;21.38;;;;;;;;;;5085945;28;20358;-76
2023/02/21 06:27:31;;;;;;;36.88;19.48;;;;;;;;;;5084083;28;20111;-76
2023/02/21 06:29:57;;;;;;;34.53;19.83;;;;;;;;;;5085085;28;20536;-77
2023/02/21 06:32:23;;;;;;;50.55;25.50;;;;;;;;;;5088592;28;20039;-77
2023/02/21 06:34:49;;;;;;;57.42;29.35;;;;;;;;;;5086570;28;20028;-77
2023/02/21 06:37:15;;;;;;;55.88;28.65;;;;;;;;;;5092478;28;20112;-76
2023/02/21 06:39:41;;;;;;;56.72;30.08;;;;;;;;;;5089579;28;20069;-76
2023/02/21 06:42:07;;;;;;;47.38;24.90;;;;;;;;;;5092104;28;20032;-76
2023/02/21 06:44:33;;;;;;;65.70;30.00;;;;;;;;;;5088879;28;20040;-76
2023/02/21 06:46:59;;;;;;;66.15;33.03;;;;;;;;;;5090426;28;20028;-76
2023/02/21 06:49:25;;;;;;;69.60;30.70;;;;;;;;;;5088605;28;20133;-76
2023/02/21 06:51:51;;;;;;;70.28;33.42;;;;;;;;;;5086029;28;20473;-76
2023/02/21 06:54:17;;;;;;;54.92;23.08;;;;;;;;;;5092479;28;20024;-76
2023/02/21 06:56:46;;;;;;;45.83;21.55;;;;;;;;;;5088674;28;20039;-77
2023/02/21 06:59:12;;;;;;;41.25;20.38;;;;;;;;;;5083395;28;20105;-76
2023/02/21 07:01:38;;;;;;;42.15;18.52;;;;;;;;;;5091234;28;20036;-76
2023/02/21 07:04:04;;;;;;;34.33;16.67;;;;;;;;;;5086325;28;20587;-76
2023/02/21 07:06:32;;;;;;;30.65;14.63;;;;;;;;;;5086100;28;20043;-76
2023/02/21 07:08:58;;;;;;;23.35;11.70;;;;;;;;;;5093305;28;20508;-76
2023/02/21 07:11:24;;;;;;;23.08;10.93;;;;;;;;;;5096213;28;20043;-76
2023/02/21 07:13:51;;;;;;;30.38;15.05;;;;;;;;;;5092623;28;20028;-76
2023/02/21 07:16:17;;;;;;;37.50;15.38;;;;;;;;;;5085747;28;20413;-76
2023/02/21 07:18:44;;;;;;;28.60;14.90;;;;;;;;;;5095008;28;20036;-76
2023/02/21 07:21:10;;;;;;;21.38;10.60;;;;;;;;;;5089357;28;20063;-76
2023/02/21 07:23:36;;;;;;;23.88;11.98;;;;;;;;;;5090532;28;20465;-76
2023/02/21 07:26:02;;;;;;;43.47;18.60;;;;;;;;;;5091237;28;20043;-76
2023/02/21 07:28:28;;;;;;;47.45;17.52;;;;;;;;;;5092328;28;20023;-76
2023/02/21 07:30:54;;;;;;;67.03;23.33;;;;;;;;;;5092194;28;20044;-76
2023/02/21 07:33:20;;;;;;;77.20;29.92;;;;;;;;;;5084171;28;20020;-76
2023/02/21 07:35:46;;;;;;;72.75;27.65;;;;;;;;;;5090611;28;20111;-76
2023/02/21 07:38:21;;;;;;;153.32;52.05;;;;;;;;;;5087313;28;20084;-76
2023/02/21 07:40:47;;;;;;;83.38;29.10;;;;;;;;;;5086192;28;21158;-76
2023/02/21 07:43:13;;;;;;;51.88;19.83;;;;;;;;;;5083241;28;20055;-76
2023/02/21 07:45:39;;;;;;;81.15;30.17;;;;;;;;;;5089488;28;20100;-76
2023/02/21 07:48:05;;;;;;;53.75;21.70;;;;;;;;;;5093392;28;20480;-76
2023/02/21 07:50:31;;;;;;;42.88;19.27;;;;;;;;;;5086680;28;20024;-76
2023/02/21 07:52:58;;;;;;;71.15;29.92;;;;;;;;;;5085574;28;20035;-76
2023/02/21 07:55:25;;;;;;;42.75;19.70;;;;;;;;;;5089009;28;20028;-76
2023/02/21 07:57:51;;;;;;;19.45;9.20;;;;;;;;;;5091573;28;20035;-76
2023/02/21 08:00:17;;;;;;;40.60;19.02;;;;;;;;;;5091548;28;20035;-76
2023/02/21 08:02:49;;;;;;;32.42;18.13;;;;;;;;;;5089883;28;20032;-76
2023/02/21 08:05:15;;;;;;;28.75;14.63;;;;;;;;;;5090821;28;20030;-76
2023/02/21 08:07:42;;;;;;;31.90;15.57;;;;;;;;;;5086274;28;20063;-76
2023/02/21 08:10:08;;;;;;;28.08;13.85;;;;;;;;;;5089711;28;20107;-76
2023/02/21 08:12:34;;;;;;;32.45;15.23;;;;;;;;;;5091017;28;20500;-76
2023/02/21 08:15:00;;;;;;;36.28;16.08;;;;;;;;;;5090184;28;20032;-76
2023/02/21 08:17:26;;;;;;;22.88;12.20;;;;;;;;;;5088393;28;20031;-76
2023/02/21 08:19:52;;;;;;;18.58;6.45;;;;;;;;;;5088562;28;20496;-77
2023/02/21 08:22:19;;;;;;;19.05;7.55;;;;;;;;;;5089577;28;20032;-77
2023/02/21 08:24:45;;;;;;;21.65;12.15;;;;;;;;;;5088526;28;20028;-77
2023/02/21 08:27:11;;;;;;;24.63;12.40;;;;;;;;;;5085671;28;20031;-77
2023/02/21 08:29:39;;;;;;;27.67;12.20;;;;;;;;;;5082146;28;20036;-77
2023/02/21 08:32:05;;;;;;;22.23;10.73;;;;;;;;;;5089434;28;20024;-76
2023/02/21 08:34:31;;;;;;;16.73;8.23;;;;;;;;;;5088557;28;20112;-76
2023/02/21 08:36:57;;;;;;;17.58;7.45;;;;;;;;;;5083277;28;20488;-77
2023/02/21 08:39:23;;;;;;;21.95;8.07;;;;;;;;;;5086646;28;20083;-77
2023/02/21 08:41:51;;;;;;;16.48;6.60;;;;;;;;;;5088057;28;20028;-76
2023/02/21 08:44:20;;;;;;;15.18;6.63;;;;;;;;;;5085772;28;20080;-76
2023/02/21 08:46:46;;;;;;;9.48;4.50;;;;;;;;;;5088097;28;20032;-76
2023/02/21 08:49:12;;;;;;;14.18;5.05;;;;;;;;;;5086581;28;20072;-76
2023/02/21 08:51:39;;;;;;;13.35;6.28;;;;;;;;;;5090245;28;20105;-76
2023/02/21 08:54:05;;;;;;;19.08;9.27;;;;;;;;;;5087667;28;20039;-76
2023/02/21 08:56:31;;;;;;;21.50;9.52;;;;;;;;;;5085345;28;20040;-76
2023/02/21 08:58:57;;;;;;;20.10;9.07;;;;;;;;;;5082155;28;20035;-76
2023/02/21 09:01:24;;;;;;;20.92;8.65;;;;;;;;;;5088464;28;20370;-76
2023/02/21 09:03:50;;;;;;;21.85;10.25;;;;;;;;;;5089179;28;20107;-76
2023/02/21 09:06:17;;;;;;;22.85;9.98;;;;;;;;;;5088193;28;20043;-76
2023/02/21 09:08:43;;;;;;;25.88;11.65;;;;;;;;;;5089591;28;20024;-76
2023/02/21 09:11:09;;;;;;;27.05;10.23;;;;;;;;;;5090948;28;20024;-76
2023/02/21 09:13:35;;;;;;;20.95;9.55;;;;;;;;;;5089520;28;20028;-76
2023/02/21 09:16:02;;;;;;;22.23;9.07;;;;;;;;;;5081698;28;20043;-76
2023/02/21 09:18:29;;;;;;;18.42;8.10;;;;;;;;;;5092061;28;20066;-76
2023/02/21 09:20:56;;;;;;;16.23;7.95;;;;;;;;;;5088327;28;20050;-76
2023/02/21 09:23:23;;;;;;;16.10;7.35;;;;;;;;;;5086003;28;20115;-76
2023/02/21 09:25:48;;;;;;;17.40;6.95;;;;;;;;;;5085922;28;20034;-76
2023/02/21 09:28:15;;;;;;;15.60;5.47;;;;;;;;;;5087771;28;20036;-76
2023/02/21 09:30:41;;;;;;;13.32;5.75;;;;;;;;;;5090172;28;20044;-76
2023/02/21 09:33:07;;;;;;;19.58;10.63;;;;;;;;;;5083569;28;20035;-76
2023/02/21 09:35:33;;;;;;;17.85;10.43;;;;;;;;;;5082922;28;20035;-76
2023/02/21 09:38:00;;;;;;;16.20;10.13;;;;;;;;;;5086070;28;20111;-77
2023/02/21 09:40:28;;;;;;;13.93;9.13;;;;;;;;;;5088699;28;20039;-76
2023/02/21 09:42:55;;;;;;;12.98;6.78;;;;;;;;;;5086895;28;20032;-76
2023/02/21 09:45:23;;;;;;;10.65;3.80;;;;;;;;;;5087539;28;20055;-76
2023/02/21 09:47:50;;;;;;;10.85;3.45;;;;;;;;;;5088687;28;20063;-77
2023/02/21 09:50:18;;;;;;;10.65;3.13;;;;;;;;;;5087423;28;20028;-76
2023/02/21 09:52:45;;;;;;;8.70;3.45;;;;;;;;;;5091679;28;20587;-77
2023/02/21 09:55:26;;;;;;;12.43;3.50;;;;;;;;;;5087824;28;20028;-76
2023/02/21 09:57:52;;;;;;;12.10;3.83;;;;;;;;;;5083790;28;20039;-77
2023/02/21 10:00:20;;;;;;;16.90;4.50;;;;;;;;;;5087136;28;20028;-77
2023/02/21 10:03:05;;;;;;;13.23;4.18;;;;;;;;;;5082146;28;20483;-77
2023/02/21 10:05:42;;;;;;;18.13;4.70;;;;;;;;;;5069059;28;20521;-73
2023/02/21 10:08:31;;;;;;;10.60;3.78;;;;;;;;;;5075653;28;20039;-77
2023/02/21 10:11:02;;;;;;;11.75;3.80;;;;;;;;;;5049060;28;20040;-76
2023/02/21 10:13:47;;;;;;;11.48;4.20;;;;;;;;;;5088371;28;20097;-76
2023/02/21 10:16:33;;;;;;;13.93;3.95;;;;;;;;;;5078857;28;20028;-76
2023/02/21 10:19:16;;;;;;;13.25;4.40;;;;;;;;;;5079512;28;20049;-76
2023/02/21 10:21:45;;;;;;;10.32;3.67;;;;;;;;;;5079213;28;20036;-76
2023/02/21 10:24:13;;;;;;;15.35;4.00;;;;;;;;;;5082581;28;20065;-76
2023/02/21 10:26:41;;;;;;;14.48;3.88;;;;;;;;;;5079667;28;20040;-76
2023/02/21 10:29:20;;;;;;;9.85;3.63;;;;;;;;;;5086647;28;20063;-77
2023/02/21 10:31:46;;;;;;;13.70;3.80;;;;;;;;;;5087126;28;20066;-76
2023/02/21 10:34:25;;;;;;;10.90;3.80;;;;;;;;;;5088515;28;20020;-76
2023/02/21 10:36:53;;;;;;;12.45;3.60;;;;;;;;;;5083150;28;20093;-77
2023/02/21 10:39:21;;;;;;;12.70;4.05;;;;;;;;;;5084320;28;20039;-76
2023/02/21 10:41:49;;;;;;;12.18;3.80;;;;;;;;;;5077200;28;20135;-76
2023/02/21 10:44:21;;;;;;;8.40;3.10;;;;;;;;;;5081688;28;20044;-76
2023/02/21 10:46:53;;;;;;;10.20;3.30;;;;;;;;;;5086783;28;20477;-76
2023/02/21 10:49:27;;;;;;;12.52;3.35;;;;;;;;;;5088558;28;20016;-77
2023/02/21 10:52:20;;;;;;;13.43;3.63;;;;;;;;;;5089247;28;20128;-76
2023/02/21 10:55:02;;;;;;;12.57;4.15;;;;;;;;;;5086406;28;20036;-76
2023/02/21 10:57:30;;;;;;;18.55;3.95;;;;;;;;;;5083662;28;20040;-76
2023/02/21 10:59:57;;;;;;;9.48;3.75;;;;;;;;;;5086675;28;20042;-76
2023/02/21 11:02:26;;;;;;;8.60;2.88;;;;;;;;;;5087456;28;20565;-76
2023/02/21 11:04:54;;;;;;;10.20;2.72;;;;;;;;;;5085577;28;20032;-76
2023/02/21 11:07:20;;;;;;;14.98;2.97;;;;;;;;;;5084581;28;20403;-76
2023/02/21 11:09:46;;;;;;;7.18;2.30;;;;;;;;;;5088455;28;20028;-76
2023/02/21 11:12:18;;;;;;;6.72;2.53;;;;;;;;;;5079017;28;20094;-76
2023/02/21 11:14:47;;;;;;;8.68;2.60;;;;;;;;;;5087826;28;20051;-76
2023/02/21 11:17:20;;;;;;;9.02;2.60;;;;;;;;;;5087534;28;20055;-77
2023/02/21 11:19:47;;;;;;;5.72;1.73;;;;;;;;;;5086788;28;20044;-76
2023/02/21 11:22:14;;;;;;;7.57;2.30;;;;;;;;;;5090550;28;20042;-76
2023/02/21 11:24:45;;;;;;;7.45;2.25;;;;;;;;;;5091770;28;20043;-76
2023/02/21 11:27:11;;;;;;;9.13;2.97;;;;;;;;;;5090393;28;20600;-76
2023/02/21 11:29:41;;;;;;;10.85;3.00;;;;;;;;;;5091538;28;20032;-77
2023/02/21 11:32:12;;;;;;;6.20;1.77;;;;;;;;;;5089790;28;20805;-77
2023/02/21 11:34:43;;;;;;;3.95;1.52;;;;;;;;;;5090709;28;20487;-76
2023/02/21 11:37:10;;;;;;;8.35;2.60;;;;;;;;;;5090408;28;20040;-76
2023/02/21 11:39:36;;;;;;;6.55;1.80;;;;;;;;;;5088937;28;20454;-76
2023/02/21 11:42:03;;;;;;;9.82;3.30;;;;;;;;;;5084977;28;20479;-76
2023/02/21 11:44:33;;;;;;;6.53;2.88;;;;;;;;;;5087896;28;20083;-77
2023/02/21 11:46:59;;;;;;;7.07;2.80;;;;;;;;;;5093612;28;20100;-76
2023/02/21 11:49:32;;;;;;;10.63;2.80;;;;;;;;;;5091498;28;20473;-76
2023/02/21 11:52:17;;;;;;;10.73;2.85;;;;;;;;;;5090201;28;20040;-76
2023/02/21 11:54:43;;;;;;;10.55;3.25;;;;;;;;;;5086357;28;20039;-76
2023/02/21 11:57:12;;;;;;;9.07;2.80;;;;;;;;;;5091191;28;20119;-77
2023/02/21 11:59:38;;;;;;;7.53;2.60;;;;;;;;;;5087486;28;20040;-76
2023/02/21 12:02:22;;;;;;;9.18;2.95;;;;;;;;;;5091397;28;20632;-77
2023/02/21 12:05:13;;;;;;;10.80;3.95;;;;;;;;;;5082818;28;20074;-77
2023/02/21 12:07:39;;;;;;;7.88;2.90;;;;;;;;;;5089762;28;20032;-77
2023/02/21 12:10:22;;;;;;;6.35;3.00;;;;;;;;;;5085783;28;20461;-77
2023/02/21 12:12:55;;;;;;;11.85;2.90;;;;;;;;;;5086495;28;20058;-76
2023/02/21 12:15:21;;;;;;;6.88;2.38;;;;;;;;;;5087798;28;20025;-77
2023/02/21 12:17:52;;;;;;;11.40;3.10;;;;;;;;;;5090459;28;20495;-77
2023/02/21 12:20:38;;;;;;;7.68;3.03;;;;;;;;;;5087028;28;20584;-77
2023/02/21 12:23:12;;;;;;;7.55;3.03;;;;;;;;;;5085876;28;20033;-76
2023/02/21 12:25:38;;;;;;;9.95;3.60;;;;;;;;;;5087579;28;20429;-77
2023/02/21 12:28:17;;;;;;;9.95;3.50;;;;;;;;;;5088022;28;20043;-76
2023/02/21 12:30:49;;;;;;;14.15;4.00;;;;;;;;;;5085430;28;20127;-77
2023/02/21 12:33:41;;;;;;;8.88;3.50;;;;;;;;;;5089283;28;20109;-76
2023/02/21 12:36:25;;;;;;;7.38;3.53;;;;;;;;;;5081710;28;20036;-76
2023/02/21 12:38:55;;;;;;;10.68;4.00;;;;;;;;;;5089376;28;20389;-76
2023/02/21 12:41:38;;;;;;;7.68;2.92;;;;;;;;;;5091028;28;20035;-76
2023/02/21 12:44:04;;;;;;;;;;;;;;;;;;5087105;28;20112;-76
2023/02/21 12:46:50;;;;;;;7.55;3.20;;;;;;;;;;5088868;28;19916;-76
2023/02/21 12:49:25;;;;;;;8.40;2.78;;;;;;;;;;5081449;28;20044;-76
2023/02/21 12:52:10;;;;;;;9.27;3.50;;;;;;;;;;5088938;28;20055;-76
2023/02/21 12:54:36;;;;;;;10.00;3.92;;;;;;;;;;5072260;28;20024;-76
2023/02/21 12:57:06;;;;;;;7.38;3.10;;;;;;;;;;5087042;28;20774;-76
2023/02/21 12:59:51;;;;;;;12.82;3.58;;;;;;;;;;5089464;28;20814;-76
2023/02/21 13:02:30;;;;;;;7.65;4.05;;;;;;;;;;5089826;28;20158;-75
2023/02/21 13:04:59;;;;;;;7.10;2.88;;;;;;;;;;5088877;28;20475;-76
2023/02/21 13:07:25;;;;;;;10.80;3.78;;;;;;;;;;5088435;28;20047;-76
2023/02/21 13:09:56;;;;;;;10.90;3.05;;;;;;;;;;5088682;28;20654;-76
2023/02/21 13:12:30;;;;;;;7.95;4.05;;;;;;;;;;5089530;28;20020;-76
2023/02/21 13:15:02;;;;;;;11.23;3.90;;;;;;;;;;5088473;28;20240;-76
2023/02/21 13:17:28;;;;;;;9.63;5.57;;;;;;;;;;5086541;28;20591;-76
2023/02/21 13:19:58;;;;;;;11.85;5.63;;;;;;;;;;5081710;28;20032;-76
2023/02/21 13:25:12;;;;;;;8.98;4.88;;;;;;;;;;5085930;28;20075;-76
2023/02/21 13:27:50;;;;;;;11.10;5.00;;;;;;;;;;5084986;28;20067;-76
2023/02/21 13:30:28;;;;;;;12.35;6.00;;;;;;;;;;5080955;28;20025;-76
2023/02/21 13:32:59;;;;;;;11.35;6.60;;;;;;;;;;5083412;28;20028;-76
2023/02/21 13:35:46;;;;;;;10.55;5.95;;;;;;;;;;5084834;28;20678;-76
2023/02/21 13:38:12;;;;;;;11.30;6.40;;;;;;;;;;5086955;28;20038;-76
2023/02/21 13:40:42;;;;;;;14.98;7.00;;;;;;;;;;5085323;28;20090;-75
2023/02/21 13:43:25;;;;;;;9.55;6.38;;;;;;;;;;5087941;28;20096;-76
2023/02/21 13:45:52;;;;;;;18.42;6.88;;;;;;;;;;5081495;28;20070;-76
2023/02/21 13:48:23;;;;;;;11.30;6.55;;;;;;;;;;5088287;28;20042;-76
2023/02/21 13:50:54;;;;;;;9.75;6.07;;;;;;;;;;5086301;28;20039;-75
2023/02/21 13:53:23;;;;;;;10.93;6.18;;;;;;;;;;5088704;28;20027;-76
2023/02/21 13:56:07;;;;;;;11.02;6.70;;;;;;;;;;5077125;28;20044;-76
2023/02/21 13:58:37;;;;;;;8.27;5.90;;;;;;;;;;5085160;28;20032;-76
2023/02/21 14:01:39;;;;;;;20.08;8.07;;;;;;;;;;5084810;28;20377;-76
2023/02/21 14:04:24;;;;;;;16.40;7.45;;;;;;;;;;5027139;28;20066;-76
2023/02/21 14:06:56;;;;;;;8.82;6.30;;;;;;;;;;5081718;28;20420;-76
2023/02/21 14:09:22;;;;;;;19.33;7.75;;;;;;;;;;5084881;28;20465;-76
2023/02/21 14:12:01;;;;;;;34.92;8.82;;;;;;;;;;5086436;28;20070;-76
2023/02/21 14:14:30;;;;;;;33.20;9.23;;;;;;;;;;5087837;28;20020;-75
2023/02/21 14:17:01;;;;;;;12.25;6.13;;;;;;;;;;5086367;28;20036;-76
2023/02/21 14:19:30;;;;;;;12.30;5.97;;;;;;;;;;5085025;28;20055;-76
2023/02/21 14:22:01;;;;;;;8.75;3.83;;;;;;;;;;5084502;28;20040;-76
2023/02/21 14:24:29;;;;;;;8.70;3.67;;;;;;;;;;5086824;28;20126;-76
2023/02/21 14:26:57;;;;;;;9.27;3.80;;;;;;;;;;5086817;28;20389;-76
2023/02/21 14:29:32;;;;;;;11.85;3.45;;;;;;;;;;5084187;28;20029;-76
2023/02/21 14:32:02;;;;;;;14.02;3.83;;;;;;;;;;5083428;28;20381;-76
2023/02/21 14:34:37;;;;;;;10.20;5.05;;;;;;;;;;5085883;28;20797;-76
2023/02/21 14:37:05;;;;;;;8.77;3.42;;;;;;;;;;5082623;28;20189;-76
2023/02/21 14:39:38;;;;;;;9.70;3.28;;;;;;;;;;5085507;28;20496;-76
2023/02/21 14:42:04;;;;;;;10.50;3.40;;;;;;;;;;5088325;28;20032;-76
2023/02/21 14:44:36;;;;;;;11.98;3.38;;;;;;;;;;5086440;28;20378;-76
2023/02/21 14:47:20;;;;;;;12.05;3.10;;;;;;;;;;5085740;28;20035;-76
2023/02/21 14:49:56;;;;;;;6.93;2.03;;;;;;;;;;5086773;28;20029;-76
2023/02/21 14:52:34;;;;;;;6.78;2.05;;;;;;;;;;5084550;28;20388;-76
2023/02/21 14:55:09;;;;;;;6.18;2.25;;;;;;;;;;5060895;28;20024;-76
2023/02/21 14:57:53;;;;;;;9.18;2.42;;;;;;;;;;5088274;28;20703;-76
2023/02/21 15:00:27;;;;;;;10.10;2.72;;;;;;;;;;5096068;28;20040;-76
2023/02/21 15:03:12;;;;;;;7.00;2.50;;;;;;;;;;5079942;28;20028;-76
2023/02/21 15:05:38;;;;;;;7.05;2.00;;;;;;;;;;5081536;28;20044;-76
2023/02/21 15:08:13;;;;;;;10.43;2.75;;;;;;;;;;5089676;28;20042;-76
2023/02/21 15:10:40;;;;;;;8.10;2.45;;;;;;;;;;5091389;28;20461;-76
2023/02/21 15:13:06;;;;;;;4.85;2.08;;;;;;;;;;5090890;28;20381;-76
2023/02/21 15:15:34;;;;;;;8.55;2.50;;;;;;;;;;5091997;28;20024;-76
2023/02/21 15:18:05;;;;;;;8.52;3.30;;;;;;;;;;5091290;28;20137;-76
2023/02/21 15:20:33;;;;;;;5.18;2.45;;;;;;;;;;5089387;28;20538;-76
2023/02/21 15:23:01;;;;;;;6.28;2.92;;;;;;;;;;5090058;28;20030;-76
2023/02/21 15:25:27;;;;;;;7.35;3.13;;;;;;;;;;5084479;28;20028;-76
2023/02/21 15:27:55;;;;;;;13.85;4.13;;;;;;;;;;5085206;28;20033;-76
2023/02/21 15:30:24;;;;;;;11.00;3.30;;;;;;;;;;5087960;28;20068;-76
2023/02/21 15:33:09;;;;;;;7.60;3.00;;;;;;;;;;5087256;28;20122;-76
2023/02/21 15:35:48;;;;;;;11.98;3.50;;;;;;;;;;5086827;28;20082;-76
2023/02/21 15:38:22;;;;;;;15.43;5.93;;;;;;;;;;5090130;28;20036;-76
2023/02/21 15:40:49;;;;;;;13.45;4.82;;;;;;;;;;5089217;28;20043;-76
2023/02/21 15:43:24;;;;;;;12.98;4.43;;;;;;;;;;5085971;28;20029;-76
2023/02/21 15:45:51;;;;;;;10.90;3.45;;;;;;;;;;5090958;28;20119;-75
2023/02/21 15:48:17;;;;;;;9.90;3.80;;;;;;;;;;5086328;28;20038;-76
2023/02/21 15:50:45;;;;;;;9.40;3.50;;;;;;;;;;5082798;28;20397;-76
2023/02/21 15:53:19;;;;;;;7.88;2.83;;;;;;;;;;5086295;28;20710;-76
2023/02/21 15:55:46;;;;;;;7.15;2.58;;;;;;;;;;5088074;28;20036;-76
2023/02/21 15:58:21;;;;;;;11.23;2.38;;;;;;;;;;5087617;28;20131;-76
2023/02/21 16:01:07;;;;;;;6.50;2.17;;;;;;;;;;5088718;28;20105;-76
2023/02/21 16:03:47;;;;;;;7.18;2.22;;;;;;;;;;5089992;28;20032;-76
2023/02/21 16:06:19;;;;;;;12.05;2.45;;;;;;;;;;5090991;28;20094;-75
2023/02/21 16:08:57;;;;;;;6.60;2.65;;;;;;;;;;5092090;28;20046;-76
2023/02/21 16:11:24;;;;;;;9.75;3.17;;;;;;;;;;5085556;28;20028;-76
2023/02/21 16:13:50;;;;;;;9.02;4.05;;;;;;;;;;5097615;28;20069;-76
2023/02/21 16:16:16;;;;;;;16.50;3.78;;;;;;;;;;5089564;28;20032;-75
2023/02/21 16:18:42;;;;;;;13.27;3.80;;;;;;;;;;5092706;28;20668;-76
2023/02/21 16:21:21;;;;;;;8.57;4.00;;;;;;;;;;5086364;28;20373;-76
2023/02/21 16:23:47;;;;;;;9.05;3.90;;;;;;;;;;5091097;28;20119;-76
2023/02/21 16:26:17;;;;;;;11.20;3.78;;;;;;;;;;5089188;28;20032;-76
2023/02/21 16:28:44;;;;;;;11.70;3.13;;;;;;;;;;5087795;28;20035;-76
2023/02/21 16:31:23;;;;;;;9.93;3.80;;;;;;;;;;5090870;28;20051;-76
2023/02/21 16:33:50;;;;;;;12.70;3.65;;;;;;;;;;5086042;28;20028;-75
2023/02/21 16:36:19;;;;;;;12.50;4.20;;;;;;;;;;5087455;28;20032;-76
2023/02/21 16:38:45;;;;;;;15.23;4.00;;;;;;;;;;5090397;28;20111;-76
2023/02/21 16:41:12;;;;;;;13.57;4.95;;;;;;;;;;5076787;28;20107;-76
2023/02/21 16:43:38;;;;;;;15.00;7.35;;;;;;;;;;5089237;28;20131;-76
2023/02/21 16:46:04;;;;;;;20.45;11.05;;;;;;;;;;5088187;28;21049;-76
2023/02/21 16:48:31;;;;;;;35.13;19.33;;;;;;;;;;5085964;28;20032;-76
2023/02/21 16:50:58;;;;;;;31.83;18.77;;;;;;;;;;5080539;28;20041;-76
2023/02/21 16:53:25;;;;;;;30.63;16.08;;;;;;;;;;5089702;28;20042;-76
2023/02/21 16:55:51;;;;;;;25.13;12.65;;;;;;;;;;5086580;28;20048;-76
2023/02/21 16:58:26;;;;;;;19.35;9.93;;;;;;;;;;5085585;28;20106;-76
2023/02/21 17:00:56;;;;;;;14.85;7.18;;;;;;;;;;5080566;28;20103;-75